Airfield :







YOU CAN JOIN US ON...

 
LOGIN :

Register | Disclaimer

   EN    FR    IT 

 









Legend :    VFR   Marginal VFR   IFR   Intensive IFR   Very Intensive IFR
Visi :
Ceiling :
>= 8 km
>= 3000ft
5 to 8 km
1000 to 3000 ft
1500m to 5 km
500 to 1000 ft
800 to 1500m
200 to 500 ft
< 800m
< 200 ft
Symbols :   Thunderstorms  Fog  Heavy snow  Heavy precipitations  Wind > 20 kt






- Airport Elevation : 180 ft
- IATA code : YZV


CYZV - Sept-Iles

CURRENT METAR :
  • 010400Z 05008KT 15SM OVC034 02/M04 A3021 RMK SC8 SLP233

EXPIRED METARs :
  • 010300Z 03006KT 15SM OVC035 02/M03 A3022 RMK SC8 SLP237
  • 010200Z 02006KT 15SM OVC040 02/M02 A3024 RMK SC8 SLP243

TAF TAF CYZV
Valid from the 01 at 00:00 until the 02 at 00:00 UTC


312341Z 0100/0124 05010G20KT P6SM BKN050 OVC110
FM010400 04010G20KT P6SM SCT015 OVC025
TEMPO 0104/0106 5SM -SHRA BR BKN015 OVC025
FM010600 04010KT 6SM -RASN BR OVC015
TEMPO 0106/0112 11/2SM -SN OVC008
FM011200 04008KT 3SM -RASN BR OVC020
FM011500 04010KT P6SM -SHRA OVC020
FM012100 05010KT 3SM -RA BR OVC008
FM012300 05010KT 2SM -DZ BR OVC004 RMK NXT FCST BY 010600Z



MET'MAP, your aeronautical weather chart ! - Copyright ORBIFLY December 2007 - Disclaimer

ORBIFLY MET'MAP TEAM :

Programming & Development : Alexandra Zaïnal
Concept & original design : Baudouin d'Aumeries
Assistance for programming : Marc-Olivier Méhu
Technical & hardware support : Manuel Goepfert

Contact : metmap@orbifly.com




SOURCES & CREDITS :

   NOAA